Time;durP1;ratioP1;P1;durP2;ratioP2;P2;SDS_P1;SDS_P2;PMS_P1;PMS_P2;Temp;Humidity;BMP_temperature;BMP_pressure;BME280_temperature;BME280_humidity;BME280_pressure;Samples;Min_cycle;Max_cycle;Signal;HPM_P1;HPM_P2
2022/04/25 00:02:27;;;;;;;8.45;7.25;;;;;;;-141.48;100.00;69781.59;5211410;28;20040;-57
2022/04/25 00:04:57;;;;;;;8.60;7.88;;;;;;;-141.48;100.00;69781.59;5210742;28;20025;-58
2022/04/25 00:07:27;;;;;;;7.45;6.65;;;;;;;-141.48;100.00;69781.59;5211033;28;20033;-59
2022/04/25 00:09:58;;;;;;;8.82;8.07;;;;;;;-141.48;100.00;69781.59;5210731;28;20040;-56
2022/04/25 00:12:28;;;;;;;8.60;7.97;;;;;;;-141.48;100.00;69781.59;5211281;28;20025;-58
2022/04/25 00:14:59;;;;;;;10.02;7.55;;;;;;;-141.48;100.00;69781.59;5210669;28;20565;-56
2022/04/25 00:17:29;;;;;;;8.07;6.60;;;;;;;-141.48;100.00;69781.59;5211130;28;20048;-57
2022/04/25 00:20:00;;;;;;;10.40;9.40;;;;;;;-141.48;100.00;69781.59;5228580;28;20033;-58
2022/04/25 00:22:30;;;;;;;12.95;9.30;;;;;;;-141.48;100.00;69781.59;5224331;22;20339;-54
2022/04/25 00:25:02;;;;;;;8.10;7.43;;;;;;;-141.48;100.00;69781.59;5209445;28;20422;-55
2022/04/25 00:27:33;;;;;;;7.22;6.78;;;;;;;-141.48;100.00;69781.59;5209786;28;20480;-54
2022/04/25 00:30:04;;;;;;;9.45;8.68;;;;;;;-141.48;100.00;69781.59;5210160;28;20025;-53
2022/04/25 00:32:34;;;;;;;8.82;8.07;;;;;;;-141.48;100.00;69781.59;5209859;28;20463;-54
2022/04/25 00:35:06;;;;;;;14.25;7.38;;;;;;;-141.48;100.00;69781.59;5209517;28;20028;-56
2022/04/25 00:37:36;;;;;;;9.95;9.05;;;;;;;-141.48;100.00;69781.59;5209852;28;20120;-53
2022/04/25 00:40:08;;;;;;;10.52;9.60;;;;;;;-141.48;100.00;69781.59;5209771;28;20117;-53
2022/04/25 00:42:39;;;;;;;9.30;8.50;;;;;;;-141.48;100.00;69781.59;5209800;28;20033;-52
2022/04/25 00:45:11;;;;;;;7.10;6.63;;;;;;;-141.48;100.00;69781.59;5209602;28;20118;-55
2022/04/25 00:47:43;;;;;;;10.90;8.95;;;;;;;-141.48;100.00;69781.59;5209446;28;20029;-57
2022/04/25 00:50:14;;;;;;;9.15;8.35;;;;;;;-141.48;100.00;69781.59;5209508;28;20408;-53
2022/04/25 00:52:44;;;;;;;8.40;7.60;;;;;;;-141.48;100.00;69781.59;5209545;28;20024;-56
2022/04/25 00:55:15;;;;;;;12.50;8.63;;;;;;;-141.48;100.00;69781.59;5208847;28;20029;-54
2022/04/25 00:57:46;;;;;;;10.80;8.98;;;;;;;-141.48;100.00;69781.59;5209168;28;20499;-53
2022/04/25 01:00:16;;;;;;;8.85;8.25;;;;;;;-141.48;100.00;69781.59;5227060;28;20021;-55
2022/04/25 01:02:47;;;;;;;10.77;9.20;;;;;;;-141.48;100.00;69781.59;5209382;28;20465;-53
2022/04/25 01:05:17;;;;;;;9.23;8.45;;;;;;;-141.48;100.00;69781.59;5208900;28;20028;-52
2022/04/25 01:07:48;;;;;;;9.10;8.02;;;;;;;-141.48;100.00;69781.59;5209166;28;20033;-53
2022/04/25 01:10:19;;;;;;;10.40;8.77;;;;;;;-141.48;100.00;69781.59;5209160;28;20024;-56
2022/04/25 01:12:49;;;;;;;11.15;10.13;;;;;;;-141.48;100.00;69781.59;5227000;28;20468;-54
2022/04/25 01:15:22;;;;;;;8.88;8.18;;;;;;;-141.48;100.00;69781.59;5208839;28;20041;-53
2022/04/25 01:17:53;;;;;;;9.57;8.82;;;;;;;-141.48;100.00;69781.59;5209040;28;20025;-53
2022/04/25 01:20:24;;;;;;;9.85;8.63;;;;;;;-141.48;100.00;69781.59;5208830;28;20040;-53
2022/04/25 01:27:15;;;;;;;10.05;9.30;;;;;;;-141.48;100.00;69781.59;5208915;28;20028;-55
2022/04/25 01:28:40;;;;;;;12.77;9.87;;;;;;;-141.48;100.00;69781.59;5226875;28;20036;-54
2022/04/25 01:31:11;;;;;;;11.52;10.68;;;;;;;-141.48;100.00;69781.59;5208653;28;20268;-53
2022/04/25 01:33:41;;;;;;;14.50;9.88;;;;;;;-141.48;100.00;69781.59;5208343;28;20577;-53
2022/04/25 01:45:45;;;;;;;;;;;;;;;-141.48;100.00;69781.59;5704464;23;20044;-78
2022/04/25 01:48:15;;;;;;;11.57;10.65;;;;;;;-141.48;100.00;69781.59;5248519;28;19962;-79
2022/04/25 01:50:46;;;;;;;14.75;11.32;;;;;;;-141.48;100.00;69781.59;5256278;28;20035;-79
2022/04/25 01:53:16;;;;;;;10.90;10.02;;;;;;;-141.48;100.00;69781.59;5255943;28;20228;-79
2022/04/25 01:55:46;;;;;;;11.82;10.52;;;;;;;-141.48;100.00;69781.59;5255885;28;20048;-78
2022/04/25 01:58:17;;;;;;;12.25;11.07;;;;;;;-141.48;100.00;69781.59;5255886;28;20020;-79
2022/04/25 02:00:48;;;;;;;14.27;12.02;;;;;;;-141.48;100.00;69781.59;5252384;28;20435;-80
2022/04/25 02:03:21;;;;;;;14.80;10.32;;;;;;;-141.48;100.00;69781.59;5250196;28;20039;-80
2022/04/25 02:05:52;;;;;;;13.05;11.80;;;;;;;-141.48;100.00;69781.59;5250742;28;20024;-80
2022/04/25 02:08:23;;;;;;;10.95;9.95;;;;;;;-141.48;100.00;69781.59;5249905;28;20410;-80
2022/04/25 02:13:42;;;;;;;13.02;11.93;;;;;;;-141.48;100.00;69781.59;5251619;28;20085;-80
2022/04/25 02:16:13;;;;;;;11.90;10.60;;;;;;;-141.48;100.00;69781.59;5251855;28;20028;-80
2022/04/25 02:18:43;;;;;;;10.13;9.38;;;;;;;-141.48;100.00;69781.59;5232491;28;20017;-80
2022/04/25 02:21:13;;;;;;;13.55;12.13;;;;;;;-141.48;100.00;69781.59;5250051;28;20025;-80
2022/04/25 02:23:44;;;;;;;12.57;11.48;;;;;;;-141.48;100.00;69781.59;5237396;28;20028;-81
2022/04/25 02:26:52;;;;;;;13.40;12.18;;;;;;;-141.48;100.00;69781.59;5256484;28;20398;-81
2022/04/25 02:29:22;;;;;;;14.75;13.70;;;;;;;-141.48;100.00;69781.59;5258846;28;20032;-80
2022/04/25 02:31:53;;;;;;;14.52;11.60;;;;;;;-141.48;100.00;69781.59;5259700;28;20025;-81
2022/04/25 02:34:24;;;;;;;13.05;12.00;;;;;;;-141.48;100.00;69781.59;5240019;28;20104;-81
2022/04/25 02:36:55;;;;;;;14.15;12.75;;;;;;;-141.48;100.00;69781.59;5258198;28;20084;-80
2022/04/25 02:39:26;;;;;;;13.40;12.43;;;;;;;-141.48;100.00;69781.59;5241001;28;20501;-81
2022/04/25 02:41:56;;;;;;;14.38;12.85;;;;;;;-141.48;100.00;69781.59;5260355;28;20028;-81
2022/04/25 02:44:26;;;;;;;14.18;13.00;;;;;;;-141.48;100.00;69781.59;5260141;28;20044;-80
2022/04/25 02:46:57;;;;;;;14.85;13.32;;;;;;;-141.48;100.00;69781.59;5258425;28;20371;-81
2022/04/25 02:49:27;;;;;;;13.80;12.38;;;;;;;-141.48;100.00;69781.59;5258592;28;20027;-81
2022/04/25 02:51:58;;;;;;;15.70;14.05;;;;;;;-141.48;100.00;69781.59;5258076;28;20024;-81
2022/04/25 02:54:28;;;;;;;15.57;14.35;;;;;;;-141.48;100.00;69781.59;5258098;28;20082;-81
2022/04/25 02:56:58;;;;;;;13.73;12.70;;;;;;;-141.48;100.00;69781.59;5240146;28;20016;-81
2022/04/25 02:59:29;;;;;;;14.93;13.70;;;;;;;-141.48;100.00;69781.59;5258492;28;20025;-82
2022/04/25 03:01:59;;;;;;;15.07;13.75;;;;;;;-141.48;100.00;69781.59;5258299;28;20035;-81
2022/04/25 03:04:30;;;;;;;15.60;13.73;;;;;;;-141.48;100.00;69781.59;5258246;28;20105;-82
2022/04/25 03:07:00;;;;;;;13.85;12.75;;;;;;;-141.48;100.00;69781.59;5258588;28;20052;-81
2022/04/25 03:09:31;;;;;;;14.15;13.02;;;;;;;-141.48;100.00;69781.59;5240976;28;20063;-81
2022/04/25 03:12:01;;;;;;;16.45;13.38;;;;;;;-141.48;100.00;69781.59;5241024;28;20032;-81
2022/04/25 03:14:34;;;;;;;14.68;13.48;;;;;;;-141.48;100.00;69781.59;5259251;28;20028;-81
2022/04/25 03:17:05;;;;;;;13.88;12.80;;;;;;;-141.48;100.00;69781.59;5258927;28;20025;-81
2022/04/25 03:19:36;;;;;;;14.60;13.25;;;;;;;-141.48;100.00;69781.59;5259216;28;20031;-82
2022/04/25 03:22:07;;;;;;;20.02;14.13;;;;;;;-141.48;100.00;69781.59;5263082;28;20076;-81
2022/04/25 03:24:37;;;;;;;14.23;13.18;;;;;;;-141.48;100.00;69781.59;5263334;28;20045;-81
2022/04/25 03:27:07;;;;;;;17.70;16.02;;;;;;;-141.48;100.00;69781.59;5262163;28;20040;-81
2022/04/25 03:29:38;;;;;;;14.65;13.45;;;;;;;-141.48;100.00;69781.59;5262029;28;20078;-81
2022/04/25 03:32:08;;;;;;;16.95;14.93;;;;;;;-141.48;100.00;69781.59;5261724;28;20111;-81
2022/04/25 03:34:42;;;;;;;15.60;14.32;;;;;;;-141.48;100.00;69781.59;5244128;28;20076;-81
2022/04/25 03:37:13;;;;;;;14.77;13.23;;;;;;;-141.48;100.00;69781.59;5261941;28;20028;-80
2022/04/25 03:39:43;;;;;;;17.27;15.65;;;;;;;-141.48;100.00;69781.59;5261891;28;20028;-81
2022/04/25 03:42:14;;;;;;;21.08;14.15;;;;;;;-141.48;100.00;69781.59;5262094;28;20363;-81
2022/04/25 03:44:45;;;;;;;16.48;15.00;;;;;;;-141.48;100.00;69781.59;5261488;28;20479;-83
2022/04/25 03:47:15;;;;;;;17.30;15.90;;;;;;;-141.48;100.00;69781.59;5263192;28;20032;-83
2022/04/25 03:49:46;;;;;;;17.65;16.20;;;;;;;-141.48;100.00;69781.59;5261480;28;20521;-82
2022/04/25 03:52:16;;;;;;;16.08;14.68;;;;;;;-141.48;100.00;69781.59;5262155;28;20028;-82
2022/04/25 03:57:36;;;;;;;14.70;13.70;;;;;;;-141.48;100.00;69781.59;5261580;28;20070;-82
2022/04/25 04:00:07;;;;;;;17.23;15.45;;;;;;;-141.48;100.00;69781.59;5243993;28;20020;-82
2022/04/25 04:02:37;;;;;;;14.82;13.68;;;;;;;-141.48;100.00;69781.59;5261287;28;20016;-82
2022/04/25 04:05:08;;;;;;;18.15;16.90;;;;;;;-141.48;100.00;69781.59;5261164;28;20024;-81
2022/04/25 04:11:05;;;;;;;17.45;15.75;;;;;;;-141.48;100.00;69781.59;5265918;28;20058;-79
2022/04/25 04:13:35;;;;;;;21.55;17.17;;;;;;;-141.48;100.00;69781.59;5244715;28;20028;-82
2022/04/25 04:16:06;;;;;;;17.38;16.08;;;;;;;-141.48;100.00;69781.59;5265314;28;20051;-81
2022/04/25 04:18:39;;;;;;;15.95;14.50;;;;;;;-141.48;100.00;69781.59;5266581;28;20025;-81
2022/04/25 04:21:10;;;;;;;17.92;16.63;;;;;;;-141.48;100.00;69781.59;5247655;28;20538;-82
2022/04/25 04:23:40;;;;;;;17.60;16.17;;;;;;;-141.48;100.00;69781.59;5261986;28;20043;-82
2022/04/25 04:26:10;;;;;;;18.45;16.90;;;;;;;-141.48;100.00;69781.59;5261194;28;20036;-82
2022/04/25 04:29:04;;;;;;;18.70;17.10;;;;;;;-141.48;100.00;69781.59;5261789;28;20025;-82
2022/04/25 04:31:34;;;;;;;19.08;17.30;;;;;;;-141.48;100.00;69781.59;5261456;28;20017;-83
2022/04/25 04:34:05;;;;;;;18.88;17.48;;;;;;;-141.48;100.00;69781.59;5261943;28;20024;-82
2022/04/25 04:36:35;;;;;;;20.08;18.52;;;;;;;-141.48;100.00;69781.59;5263137;28;20020;-80
2022/04/25 04:39:05;;;;;;;18.52;16.83;;;;;;;-141.48;100.00;69781.59;5266478;28;20150;-81
2022/04/25 04:41:35;;;;;;;22.40;18.98;;;;;;;-141.48;100.00;69781.59;5265744;28;20031;-81
2022/04/25 04:44:06;;;;;;;19.13;17.23;;;;;;;-141.48;100.00;69781.59;5266261;28;20107;-80
2022/04/25 04:46:36;;;;;;;18.33;16.65;;;;;;;-141.48;100.00;69781.59;5265237;28;20035;-80
2022/04/25 04:49:07;;;;;;;17.92;16.35;;;;;;;-141.48;100.00;69781.59;5264950;28;20028;-81
2022/04/25 04:51:37;;;;;;;18.10;16.60;;;;;;;-141.48;100.00;69781.59;5263263;28;20144;-82
2022/04/25 04:54:08;;;;;;;17.13;15.77;;;;;;;-141.48;100.00;69781.59;5251542;28;20031;-82
2022/04/25 04:56:38;;;;;;;19.55;17.85;;;;;;;-141.48;100.00;69781.59;5255844;28;20402;-82
2022/04/25 04:59:09;;;;;;;18.77;17.20;;;;;;;-141.48;100.00;69781.59;5238079;28;20028;-82
2022/04/25 05:01:39;;;;;;;21.42;18.33;;;;;;;-141.48;100.00;69781.59;5255196;28;20032;-82
2022/04/25 05:04:10;;;;;;;18.92;17.52;;;;;;;-141.48;100.00;69781.59;5255148;28;20046;-82
2022/04/25 05:06:40;;;;;;;19.92;17.75;;;;;;;-141.48;100.00;69781.59;5255686;28;20059;-82
2022/04/25 05:09:11;;;;;;;17.70;16.02;;;;;;;-141.48;100.00;69781.59;5255281;28;20478;-81
2022/04/25 05:11:43;;;;;;;20.88;18.95;;;;;;;-141.48;100.00;69781.59;5237446;28;20025;-82
2022/04/25 05:14:14;;;;;;;21.48;19.58;;;;;;;-141.48;100.00;69781.59;5255608;28;20103;-82
2022/04/25 05:17:34;;;;;;;18.02;16.55;;;;;;;-141.48;100.00;69781.59;5255294;28;20059;-81
2022/04/25 05:20:05;;;;;;;;;;;;;;;-141.48;100.00;69781.59;5255246;28;20091;-82
2022/04/25 05:22:38;;;;;;;18.20;16.27;;;;;;;-141.48;100.00;69781.59;5254496;22;20023;-58
2022/04/25 05:25:09;;;;;;;21.75;19.80;;;;;;;-141.48;100.00;69781.59;5209722;28;20033;-56
2022/04/25 05:27:41;;;;;;;18.02;16.73;;;;;;;-141.48;100.00;69781.59;5209914;28;20033;-58
2022/04/25 05:30:12;;;;;;;18.92;17.45;;;;;;;-141.48;100.00;69781.59;5208425;28;20036;-56
2022/04/25 05:32:55;;;;;;;20.83;18.63;;;;;;;-141.48;100.00;69781.59;5210256;28;20025;-57
2022/04/25 05:35:31;;;;;;;19.13;17.45;;;;;;;-141.48;100.00;69781.59;5206916;28;20512;-57
2022/04/25 05:38:02;;;;;;;29.35;20.23;;;;;;;-141.48;100.00;69781.59;5208827;28;20148;-57
2022/04/25 05:40:33;;;;;;;22.48;20.45;;;;;;;-141.48;100.00;69781.59;5209161;28;20515;-57
2022/04/25 05:43:05;;;;;;;21.25;19.63;;;;;;;-141.48;100.00;69781.59;5207827;28;20041;-59
2022/04/25 05:45:36;;;;;;;19.88;18.15;;;;;;;-141.48;100.00;69781.59;5209058;28;20396;-57
2022/04/25 05:51:58;;;;;;;19.33;17.63;;;;;;;-141.48;100.00;69781.59;5208422;28;20104;-58
2022/04/25 05:53:46;;;;;;;19.43;17.53;;;;;;;-141.48;100.00;69781.59;5226407;28;20516;-57
2022/04/25 05:56:17;;;;;;;30.02;20.48;;;;;;;-141.48;100.00;69781.59;5205540;28;20024;-56
2022/04/25 05:58:47;;;;;;;23.50;18.60;;;;;;;-141.48;100.00;69781.59;5207063;28;20031;-58
2022/04/25 06:01:18;;;;;;;20.63;18.35;;;;;;;-141.48;100.00;69781.59;5208786;28;20035;-58
2022/04/25 06:03:48;;;;;;;19.25;17.70;;;;;;;-141.48;100.00;69781.59;5208500;28;20540;-58
2022/04/25 06:06:21;;;;;;;19.00;17.50;;;;;;;-141.48;100.00;69781.59;5208597;28;20049;-58
2022/04/25 06:08:52;;;;;;;18.33;16.55;;;;;;;-141.48;100.00;69781.59;5208294;28;20017;-56
2022/04/25 06:11:22;;;;;;;20.08;18.00;;;;;;;-141.48;100.00;69781.59;5207828;28;20060;-55
2022/04/25 06:13:53;;;;;;;21.00;18.88;;;;;;;-141.48;100.00;69781.59;5207473;28;20028;-54
2022/04/25 06:16:23;;;;;;;19.15;17.45;;;;;;;-141.48;100.00;69781.59;5207776;28;20036;-56
2022/04/25 06:18:54;;;;;;;18.30;16.40;;;;;;;-141.48;100.00;69781.59;5207653;28;20051;-57
2022/04/25 06:21:24;;;;;;;17.63;15.88;;;;;;;-141.48;100.00;69781.59;5225782;28;20104;-56
2022/04/25 06:23:55;;;;;;;18.73;16.42;;;;;;;-141.48;100.00;69781.59;5221659;22;20377;-58
2022/04/25 06:26:25;;;;;;;21.17;18.90;;;;;;;-141.48;100.00;69781.59;5208159;28;20033;-59
2022/04/25 06:28:56;;;;;;;17.00;15.55;;;;;;;-141.48;100.00;69781.59;5226040;28;20044;-56
2022/04/25 06:31:26;;;;;;;18.85;17.10;;;;;;;-141.48;100.00;69781.59;5208494;28;20036;-56
2022/04/25 06:33:58;;;;;;;17.15;15.65;;;;;;;-141.48;100.00;69781.59;5191506;28;20543;-60
2022/04/25 06:36:28;;;;;;;20.00;15.93;;;;;;;-141.48;100.00;69781.59;5208182;28;20036;-58
2022/04/25 06:38:59;;;;;;;18.38;13.88;;;;;;;-141.48;100.00;69781.59;5208084;28;20029;-56
2022/04/25 06:41:30;;;;;;;16.45;14.75;;;;;;;-141.48;100.00;69781.59;5207822;28;20040;-57
2022/04/25 06:44:01;;;;;;;16.17;14.98;;;;;;;-141.48;100.00;69781.59;5207733;28;20079;-57
2022/04/25 06:46:31;;;;;;;16.17;14.60;;;;;;;-141.48;100.00;69781.59;5208113;28;20443;-56
2022/04/25 06:49:20;;;;;;;15.52;13.90;;;;;;;-141.48;100.00;69781.59;5207719;28;20481;-57
2022/04/25 06:51:56;;;;;;;15.40;14.30;;;;;;;-141.48;100.00;69781.59;5207709;28;20031;-63
2022/04/25 06:54:28;;;;;;;18.17;15.52;;;;;;;-141.48;100.00;69781.59;5207548;28;20025;-58
2022/04/25 06:56:58;;;;;;;18.95;17.25;;;;;;;-141.48;100.00;69781.59;5207951;28;20025;-59
2022/04/25 06:59:29;;;;;;;17.10;15.27;;;;;;;-141.48;100.00;69781.59;5225601;28;20027;-57
2022/04/25 07:02:00;;;;;;;16.45;15.15;;;;;;;-141.48;100.00;69781.59;5207908;28;20243;-59
2022/04/25 07:04:31;;;;;;;19.05;17.25;;;;;;;-141.48;100.00;69781.59;5207186;28;20031;-58
2022/04/25 07:07:02;;;;;;;16.73;15.15;;;;;;;-141.48;100.00;69781.59;5207677;28;20096;-59
2022/04/25 07:09:32;;;;;;;17.92;15.82;;;;;;;-141.48;100.00;69781.59;5207488;28;20581;-58
2022/04/25 07:12:03;;;;;;;26.55;17.73;;;;;;;-141.48;100.00;69781.59;5207742;28;20025;-59
2022/04/25 07:14:33;;;;;;;22.30;16.27;;;;;;;-141.48;100.00;69781.59;5207287;28;20033;-58
2022/04/25 07:17:04;;;;;;;16.08;14.52;;;;;;;-141.48;100.00;69781.59;5207582;28;20029;-58
2022/04/25 07:19:39;;;;;;;17.25;15.73;;;;;;;-141.48;100.00;69781.59;5207463;28;20111;-63
2022/04/25 07:30:37;;;;;;;19.05;17.25;;;;;;;-141.48;100.00;69781.59;5225288;28;20090;-58
2022/04/25 07:33:08;;;;;;;17.08;15.40;;;;;;;-141.48;100.00;69781.59;5207124;28;20029;-58
2022/04/25 07:35:39;;;;;;;17.55;15.77;;;;;;;-141.48;100.00;69781.59;5225078;28;20029;-59
2022/04/25 07:38:10;;;;;;;18.20;16.65;;;;;;;-141.48;100.00;69781.59;5207410;28;20090;-58
2022/04/25 07:40:41;;;;;;;19.10;16.35;;;;;;;-141.48;100.00;69781.59;5207371;28;20025;-59
2022/04/25 07:43:11;;;;;;;17.98;16.35;;;;;;;-141.48;100.00;69781.59;5207296;28;20499;-59
2022/04/25 07:45:42;;;;;;;26.80;17.48;;;;;;;-141.48;100.00;69781.59;5207234;28;20067;-55
2022/04/25 07:48:12;;;;;;;17.40;15.80;;;;;;;-141.48;100.00;69781.59;5190628;28;20021;-58
2022/04/25 07:50:44;;;;;;;18.70;16.70;;;;;;;-141.48;100.00;69781.59;5207102;28;20032;-59
2022/04/25 07:53:14;;;;;;;20.02;15.82;;;;;;;-141.48;100.00;69781.59;5206843;28;20032;-58
2022/04/25 07:55:45;;;;;;;17.55;15.90;;;;;;;-141.48;100.00;69781.59;5225196;28;20021;-59
2022/04/25 07:58:15;;;;;;;18.58;16.83;;;;;;;-141.48;100.00;69781.59;5207106;28;20404;-59
2022/04/25 08:00:46;;;;;;;19.02;15.32;;;;;;;-141.48;100.00;69781.59;5206951;28;20493;-58
2022/04/25 08:03:17;;;;;;;21.23;19.13;;;;;;;-141.48;100.00;69781.59;5206974;28;20505;-58
2022/04/25 08:05:47;;;;;;;16.17;14.55;;;;;;;-141.48;100.00;69781.59;5208684;28;20025;-59
2022/04/25 08:08:18;;;;;;;19.42;17.50;;;;;;;-141.48;100.00;69781.59;5210945;28;20036;-59
2022/04/25 08:10:49;;;;;;;18.80;16.92;;;;;;;-141.48;100.00;69781.59;5210930;28;20149;-59
2022/04/25 08:18:58;;;;;;;20.95;16.98;;;;;;;-141.48;100.00;69781.59;5228973;28;20090;-59
2022/04/25 08:21:29;;;;;;;17.55;16.15;;;;;;;-141.48;100.00;69781.59;5210591;28;20033;-60
2022/04/25 08:23:59;;;;;;;16.50;14.90;;;;;;;-141.48;100.00;69781.59;5210717;28;20480;-58
2022/04/25 08:26:30;;;;;;;18.27;16.80;;;;;;;-141.48;100.00;69781.59;5210928;28;20032;-58
2022/04/25 08:29:00;;;;;;;16.05;14.65;;;;;;;-141.48;100.00;69781.59;5210399;28;20115;-58
2022/04/25 08:31:35;;;;;;;17.13;15.43;;;;;;;-141.48;100.00;69781.59;5210647;28;20083;-59
2022/04/25 08:34:07;;;;;;;15.35;13.02;;;;;;;-141.48;100.00;69781.59;5210273;28;20037;-59
2022/04/25 08:36:38;;;;;;;18.15;15.55;;;;;;;-141.48;100.00;69781.59;5210588;28;20033;-56
2022/04/25 08:39:09;;;;;;;15.07;13.98;;;;;;;-141.48;100.00;69781.59;5210403;28;20029;-56
2022/04/25 08:41:41;;;;;;;17.30;14.15;;;;;;;-141.48;100.00;69781.59;5210633;28;20124;-56
2022/04/25 08:44:15;;;;;;;18.30;16.77;;;;;;;-141.48;100.00;69781.59;5210049;28;20025;-54
2022/04/25 08:46:51;;;;;;;15.38;14.18;;;;;;;-141.48;100.00;69781.59;5210627;28;20024;-57
2022/04/25 08:49:22;;;;;;;15.73;14.20;;;;;;;-141.48;100.00;69781.59;5210698;28;20626;-57
2022/04/25 08:51:58;;;;;;;14.95;13.35;;;;;;;-141.48;100.00;69781.59;5210537;28;20115;-57
2022/04/25 08:54:31;;;;;;;15.55;11.57;;;;;;;-141.48;100.00;69781.59;5210593;28;20021;-59
2022/04/25 08:57:03;;;;;;;14.38;13.30;;;;;;;-141.48;100.00;69781.59;5210873;28;20032;-57
2022/04/25 08:59:34;;;;;;;13.27;12.18;;;;;;;-141.48;100.00;69781.59;5210797;28;20068;-56
2022/04/25 09:02:04;;;;;;;12.95;11.93;;;;;;;-141.48;100.00;69781.59;5210597;28;20071;-56
2022/04/25 09:04:35;;;;;;;13.23;12.13;;;;;;;-141.48;100.00;69781.59;5209870;28;20503;-58
2022/04/25 09:07:06;;;;;;;13.00;12.00;;;;;;;-141.48;100.00;69781.59;5210210;28;20029;-59
2022/04/25 09:09:36;;;;;;;12.57;11.50;;;;;;;-141.48;100.00;69781.59;5210020;28;20412;-55
2022/04/25 09:12:09;;;;;;;20.17;12.27;;;;;;;-141.48;100.00;69781.59;5209923;28;20036;-56
2022/04/25 09:14:42;;;;;;;18.35;13.00;;;;;;;-141.48;100.00;69781.59;5209925;28;20128;-57
2022/04/25 09:17:13;;;;;;;14.35;12.95;;;;;;;-141.48;100.00;69781.59;5208600;28;20060;-56
2022/04/25 09:19:43;;;;;;;13.88;12.48;;;;;;;-141.48;100.00;69781.59;5210004;28;20520;-57
2022/04/25 09:22:29;;;;;;;13.02;11.82;;;;;;;-141.48;100.00;69781.59;5227567;28;20024;-59
2022/04/25 09:25:10;;;;;;;13.55;12.55;;;;;;;-141.48;100.00;69781.59;5209752;28;20396;-57
2022/04/25 09:27:42;;;;;;;13.93;11.77;;;;;;;-141.48;100.00;69781.59;5209600;28;20028;-57
2022/04/25 09:30:19;;;;;;;12.02;11.15;;;;;;;-141.48;100.00;69781.59;5209527;28;20021;-58
2022/04/25 09:32:53;;;;;;;14.77;13.77;;;;;;;-141.48;100.00;69781.59;5209669;28;20032;-54
2022/04/25 09:35:32;;;;;;;12.73;11.40;;;;;;;-141.48;100.00;69781.59;5209317;28;20074;-56
2022/04/25 09:38:05;;;;;;;13.75;12.50;;;;;;;-141.48;100.00;69781.59;5209548;28;20032;-57
2022/04/25 09:40:38;;;;;;;13.82;12.65;;;;;;;-141.48;100.00;69781.59;5209322;28;20017;-58
2022/04/25 09:43:17;;;;;;;13.25;11.95;;;;;;;-141.48;100.00;69781.59;5227126;28;20032;-57
2022/04/25 09:46:08;;;;;;;13.63;12.63;;;;;;;-141.48;100.00;69781.59;5209366;28;20025;-58
2022/04/25 09:48:43;;;;;;;11.82;10.50;;;;;;;-141.48;100.00;69781.59;5209186;28;20025;-54
2022/04/25 09:51:16;;;;;;;12.85;11.90;;;;;;;-141.48;100.00;69781.59;5209078;28;20021;-59
2022/04/25 09:53:52;;;;;;;12.75;11.65;;;;;;;-141.48;100.00;69781.59;5208991;28;20090;-61
2022/04/25 09:56:23;;;;;;;15.50;12.68;;;;;;;-141.48;100.00;69781.59;5209029;28;20025;-58
2022/04/25 09:59:01;;;;;;;11.45;10.48;;;;;;;-141.48;100.00;69781.59;5209398;28;20420;-57
2022/04/25 10:01:34;;;;;;;11.88;10.57;;;;;;;-141.48;100.00;69781.59;5208863;28;20029;-57
2022/04/25 10:04:25;;;;;;;12.82;11.80;;;;;;;-141.48;100.00;69781.59;5209218;28;20067;-56
2022/04/25 10:07:00;;;;;;;13.80;12.50;;;;;;;-141.48;100.00;69781.59;5209241;28;20028;-55
2022/04/25 10:09:32;;;;;;;15.73;14.13;;;;;;;-141.48;100.00;69781.59;5227724;28;20116;-59
2022/04/25 10:12:05;;;;;;;16.50;14.95;;;;;;;-141.48;100.00;69781.59;5209325;28;20129;-59
2022/04/25 10:14:36;;;;;;;15.68;13.50;;;;;;;-141.48;100.00;69781.59;5209936;28;20562;-59
2022/04/25 10:17:07;;;;;;;14.38;13.15;;;;;;;-141.48;100.00;69781.59;5209674;28;20029;-55
2022/04/25 10:19:38;;;;;;;14.68;13.52;;;;;;;-141.48;100.00;69781.59;5209057;28;20025;-58
2022/04/25 10:22:09;;;;;;;16.80;15.05;;;;;;;-141.48;100.00;69781.59;5208706;28;20089;-57
2022/04/25 10:24:41;;;;;;;12.63;11.48;;;;;;;-141.48;100.00;69781.59;5207056;28;20438;-56
2022/04/25 10:27:15;;;;;;;19.65;16.33;;;;;;;-141.48;100.00;69781.59;5227097;28;20381;-55
2022/04/25 10:29:50;;;;;;;14.57;13.35;;;;;;;-141.48;100.00;69781.59;5208338;28;20072;-58
2022/04/25 10:32:25;;;;;;;17.00;15.65;;;;;;;-141.48;100.00;69781.59;5208935;28;20036;-56
2022/04/25 10:35:11;;;;;;;20.05;18.23;;;;;;;-141.48;100.00;69781.59;5208146;28;20028;-57
2022/04/25 10:37:44;;;;;;;19.45;15.70;;;;;;;-141.48;100.00;69781.59;5209052;28;20025;-61
2022/04/25 10:44:10;;;;;;;15.88;14.32;;;;;;;-141.48;100.00;69781.59;5208755;28;20515;-59
2022/04/25 10:46:07;;;;;;;16.02;14.63;;;;;;;-141.48;100.00;69781.59;5227281;28;20106;-57
2022/04/25 10:49:05;;;;;;;17.35;15.38;;;;;;;-141.48;100.00;69781.59;5208593;28;20029;-58
2022/04/25 10:51:38;;;;;;;16.25;14.90;;;;;;;-141.48;100.00;69781.59;5208541;28;20090;-58
2022/04/25 10:54:09;;;;;;;17.60;16.10;;;;;;;-141.48;100.00;69781.59;5208271;28;20021;-58
2022/04/25 10:57:08;;;;;;;17.17;15.52;;;;;;;-141.48;100.00;69781.59;5208312;28;20033;-59
2022/04/25 10:59:38;;;;;;;18.50;16.77;;;;;;;-141.48;100.00;69781.59;5208399;28;20116;-58
2022/04/25 11:02:26;;;;;;;18.80;15.95;;;;;;;-141.48;100.00;69781.59;5208030;28;20108;-57
2022/04/25 11:05:12;;;;;;;17.27;13.82;;;;;;;-141.48;100.00;69781.59;5225975;28;20028;-59
2022/04/25 11:07:42;;;;;;;15.50;14.05;;;;;;;-141.48;100.00;69781.59;5208129;28;20082;-57
2022/04/25 11:10:42;;;;;;;25.13;14.60;;;;;;;-141.48;100.00;69781.59;5207704;28;20029;-58
2022/04/25 11:13:13;;;;;;;15.20;13.88;;;;;;;-141.48;100.00;69781.59;5207848;28;20017;-57
2022/04/25 11:15:47;;;;;;;14.82;13.48;;;;;;;-141.48;100.00;69781.59;5208052;28;20503;-59
2022/04/25 11:18:34;;;;;;;15.80;14.30;;;;;;;-141.48;100.00;69781.59;5207895;28;20026;-56
2022/04/25 11:21:14;;;;;;;13.30;12.27;;;;;;;-141.48;100.00;69781.59;5207807;28;20025;-58
2022/04/25 11:23:44;;;;;;;14.75;13.38;;;;;;;-141.48;100.00;69781.59;5207806;28;20465;-59
2022/04/25 11:26:21;;;;;;;13.98;12.77;;;;;;;-141.48;100.00;69781.59;5207397;28;20035;-59
2022/04/25 11:28:54;;;;;;;14.40;10.98;;;;;;;-141.48;100.00;69781.59;5207673;28;20374;-59
2022/04/25 11:31:26;;;;;;;12.70;11.68;;;;;;;-141.48;100.00;69781.59;5207614;28;20032;-60
2022/04/25 11:34:02;;;;;;;13.88;11.95;;;;;;;-141.48;100.00;69781.59;5207477;28;20070;-56
2022/04/25 11:36:41;;;;;;;10.68;9.77;;;;;;;-141.48;100.00;69781.59;5207203;28;20029;-56
2022/04/25 11:42:06;;;;;;;13.77;12.48;;;;;;;-141.48;100.00;69781.59;5229314;28;20167;-57
2022/04/25 11:44:38;;;;;;;13.98;12.52;;;;;;;-141.48;100.00;69781.59;5211378;28;20025;-56
2022/04/25 11:47:08;;;;;;;10.93;9.88;;;;;;;-141.48;100.00;69781.59;5211654;28;20021;-59
2022/04/25 11:49:39;;;;;;;14.40;11.07;;;;;;;-141.48;100.00;69781.59;5211090;28;20021;-56
2022/04/25 11:52:15;;;;;;;18.38;12.15;;;;;;;-141.48;100.00;69781.59;5211027;28;20140;-56
2022/04/25 11:54:45;;;;;;;12.38;11.25;;;;;;;-141.48;100.00;69781.59;5211080;28;20384;-57
2022/04/25 11:57:16;;;;;;;12.05;11.00;;;;;;;-141.48;100.00;69781.59;5211397;28;20033;-57
2022/04/25 11:59:47;;;;;;;13.10;12.00;;;;;;;-141.48;100.00;69781.59;5211297;28;20119;-57
2022/04/25 12:02:17;;;;;;;17.60;11.65;;;;;;;-141.48;100.00;69781.59;5211253;28;20120;-55
2022/04/25 12:04:48;;;;;;;13.25;12.13;;;;;;;-141.48;100.00;69781.59;5210783;28;20021;-64
2022/04/25 12:07:20;;;;;;;13.05;12.05;;;;;;;-141.48;100.00;69781.59;5211138;28;20507;-55